Home   Weather   Norway   Oslo   Past weeks
Flag for Norway

Past Weather in Oslo, Norway — Yesterday and Last 2 Weeks

Currently: 36 °F. Sunny. (Weather station: Oslo Gardermoen Airport, Norway). See more current weather

Past Weather in Oslo — Graph

°F

Oslo Temperature Yesterday

Maximum temperature yesterday: 61 °F (at 4:20 pm)
Minimum temperature yesterday: 30 °F (at 4:50 am)
Average temperature yesterday: 47 °F

High & Low Weather Summary for the Past Weeks

  Temperature Humidity Pressure
High 75 °F (Apr 30, 4:20 pm) 100% (May 1, 4:50 am) 30.42 "Hg (May 1, 4:50 am)
Low 28 °F (May 6, 3:50 am) 13% (May 5, 4:50 pm) 29.56 "Hg (May 4, 7:20 pm)
Average 47 °F 46% 30.02 "Hg
* Reported Apr 24 4:20 am — May 9 4:20 am, Oslo. Weather by CustomWeather, © 2026

Note: Actual official high and low records may vary slightly from our data, if they occured in-between our weather recording intervals... More about our weather records

Oslo Weather History for the Previous 24 Hours

Scroll right to see more
  Conditions Comfort    
Time   Temp Weather Wind   Humidity Barometer Visibility
4:20 am
Sat, May 9
37 °F Clear. 2 mph 81% 30.21 "Hg 10 mi
3:50 am 36 °F Clear. 3 mph 75% 30.21 "Hg 10 mi
3:20 am 41 °F Clear. 1 mph 70% 30.21 "Hg 10 mi
2:50 am 41 °F Clear. No wind 70% 30.21 "Hg 10 mi
2:20 am 43 °F Clear. No wind 66% 30.21 "Hg 10 mi
1:50 am 45 °F Clear. 2 mph 61% 30.21 "Hg 10 mi
1:20 am 43 °F Clear. 2 mph 61% 30.21 "Hg 10 mi
12:50 am 45 °F Clear. 6 mph 57% 30.21 "Hg 10 mi
12:20 am 45 °F Clear. 6 mph 57% 30.21 "Hg 10 mi
11:50 pm
Fri, May 8
46 °F Clear. 7 mph 53% 30.21 "Hg 10 mi
11:20 pm 46 °F Clear. 9 mph 53% 30.21 "Hg 10 mi
10:50 pm 48 °F Clear. 8 mph 50% 30.21 "Hg 10 mi
10:20 pm 50 °F Clear. 9 mph 47% 30.18 "Hg 10 mi
9:50 pm 50 °F Clear. 9 mph 47% 30.18 "Hg 10 mi
9:20 pm 52 °F Sunny. 9 mph 41% 30.18 "Hg 10 mi
8:50 pm 54 °F Sunny. 12 mph 38% 30.18 "Hg 10 mi
8:20 pm 55 °F Sunny. 14 mph 33% 30.18 "Hg 10 mi
7:50 pm 55 °F Sunny. 15 mph 33% 30.18 "Hg 10 mi
7:20 pm 57 °F Sunny. 15 mph 31% 30.18 "Hg 10 mi
6:50 pm 57 °F Sunny. 17 mph 31% 30.18 "Hg 10 mi
6:20 pm 57 °F Sunny. 18 mph 31% 30.15 "Hg 10 mi
5:50 pm 59 °F Sunny. 17 mph 29% 30.15 "Hg 10 mi
5:20 pm 59 °F Sunny. 15 mph 29% 30.18 "Hg 10 mi
4:50 pm 59 °F Sunny. 17 mph 31% 30.18 "Hg 10 mi
4:20 pm 61 °F Sunny. 17 mph 27% 30.18 "Hg 10 mi
3:50 pm 59 °F Sunny. 18 mph 29% 30.18 "Hg 10 mi
3:20 pm 59 °F Passing clouds. 17 mph 29% 30.18 "Hg N/A
2:50 pm 57 °F Sunny. 17 mph 31% 30.18 "Hg 10 mi
2:20 pm 57 °F Passing clouds. 16 mph 31% 30.18 "Hg N/A
1:50 pm 57 °F Passing clouds. 14 mph 33% 30.18 "Hg N/A
1:20 pm 57 °F Passing clouds. 13 mph 31% 30.18 "Hg N/A
12:50 pm 57 °F Sunny. 15 mph 33% 30.18 "Hg 10 mi
12:20 pm 57 °F Passing clouds. 15 mph 36% 30.18 "Hg N/A
11:50 am 55 °F Passing clouds. 9 mph 36% 30.18 "Hg N/A
11:20 am 54 °F Passing clouds. 10 mph 35% 30.18 "Hg N/A
10:50 am 52 °F Passing clouds. 9 mph 35% 30.18 "Hg N/A
10:20 am 50 °F Passing clouds. 6 mph 37% 30.18 "Hg N/A
9:50 am 46 °F Passing clouds. 7 mph 46% 30.18 "Hg N/A
9:20 am 46 °F Passing clouds. 5 mph 46% 30.18 "Hg N/A
8:50 am 43 °F Sunny. 2 mph 53% 30.18 "Hg 10 mi
8:20 am 39 °F Sunny. 1 mph 56% 30.18 "Hg 10 mi
7:50 am 37 °F Sunny. 1 mph 60% 30.18 "Hg 10 mi
7:20 am 37 °F Sunny. 1 mph 60% 30.15 "Hg 10 mi
6:50 am 36 °F Sunny. 3 mph 60% 30.15 "Hg 10 mi
6:20 am 34 °F Sunny. 2 mph 65% 30.15 "Hg 10 mi
5:50 am 32 °F Sunny. 2 mph 69% 30.15 "Hg 10 mi
5:20 am 30 °F Sunny. 3 mph 69% 30.12 "Hg 10 mi
Weather by CustomWeather, © 2026

See weather overview